sensor_id;sensor_type;location;lat;lon;timestamp;temperature;humidity
25945;SHT31;13742;49.306;8.636;2023-07-20T00:00:03;22.02;49.76
25945;SHT31;13742;49.306;8.636;2023-07-20T00:01:02;22.05;49.79
25945;SHT31;13742;49.306;8.636;2023-07-20T00:02:03;21.98;49.87
25945;SHT31;13742;49.306;8.636;2023-07-20T00:03:11;21.94;50.03
25945;SHT31;13742;49.306;8.636;2023-07-20T00:04:02;21.98;49.79
25945;SHT31;13742;49.306;8.636;2023-07-20T00:05:02;21.98;49.62
25945;SHT31;13742;49.306;8.636;2023-07-20T00:06:04;22.04;49.95
25945;SHT31;13742;49.306;8.636;2023-07-20T00:07:03;22.00;49.60
25945;SHT31;13742;49.306;8.636;2023-07-20T00:08:02;22.00;49.61
25945;SHT31;13742;49.306;8.636;2023-07-20T00:09:02;21.98;49.66
25945;SHT31;13742;49.306;8.636;2023-07-20T00:10:02;21.97;49.84
25945;SHT31;13742;49.306;8.636;2023-07-20T00:11:02;21.97;49.71
25945;SHT31;13742;49.306;8.636;2023-07-20T00:12:03;21.97;49.52
25945;SHT31;13742;49.306;8.636;2023-07-20T00:13:02;21.98;49.42
25945;SHT31;13742;49.306;8.636;2023-07-20T00:14:02;22.02;49.35
25945;SHT31;13742;49.306;8.636;2023-07-20T00:15:03;22.00;49.89
25945;SHT31;13742;49.306;8.636;2023-07-20T00:16:02;22.00;49.94
25945;SHT31;13742;49.306;8.636;2023-07-20T00:17:02;22.00;49.72
25945;SHT31;13742;49.306;8.636;2023-07-20T00:18:02;22.02;49.91
25945;SHT31;13742;49.306;8.636;2023-07-20T00:19:03;22.07;49.51
25945;SHT31;13742;49.306;8.636;2023-07-20T00:20:06;22.04;49.64
25945;SHT31;13742;49.306;8.636;2023-07-20T00:21:02;22.05;49.54
25945;SHT31;13742;49.306;8.636;2023-07-20T00:22:04;22.09;49.44
25945;SHT31;13742;49.306;8.636;2023-07-20T00:23:02;22.04;49.52
25945;SHT31;13742;49.306;8.636;2023-07-20T00:24:02;22.02;49.57
25945;SHT31;13742;49.306;8.636;2023-07-20T00:25:03;22.04;49.55
25945;SHT31;13742;49.306;8.636;2023-07-20T00:26:02;22.00;49.66
25945;SHT31;13742;49.306;8.636;2023-07-20T00:27:03;21.91;50.06
25945;SHT31;13742;49.306;8.636;2023-07-20T00:28:02;21.94;49.69
25945;SHT31;13742;49.306;8.636;2023-07-20T00:29:03;21.91;49.96
25945;SHT31;13742;49.306;8.636;2023-07-20T00:30:07;21.82;50.31
25945;SHT31;13742;49.306;8.636;2023-07-20T00:31:03;21.81;50.46
25945;SHT31;13742;49.306;8.636;2023-07-20T00:32:05;21.81;50.23
25945;SHT31;13742;49.306;8.636;2023-07-20T00:33:02;21.78;50.40
25945;SHT31;13742;49.306;8.636;2023-07-20T00:34:03;21.75;50.46
25945;SHT31;13742;49.306;8.636;2023-07-20T00:35:02;21.74;50.29
25945;SHT31;13742;49.306;8.636;2023-07-20T00:36:02;21.77;50.34
25945;SHT31;13742;49.306;8.636;2023-07-20T00:37:02;21.75;50.34
25945;SHT31;13742;49.306;8.636;2023-07-20T00:38:02;21.75;50.71
25945;SHT31;13742;49.306;8.636;2023-07-20T00:39:03;21.74;50.39
25945;SHT31;13742;49.306;8.636;2023-07-20T00:40:05;21.77;50.54
25945;SHT31;13742;49.306;8.636;2023-07-20T00:41:03;21.73;50.85
25945;SHT31;13742;49.306;8.636;2023-07-20T00:42:02;21.73;50.58
25945;SHT31;13742;49.306;8.636;2023-07-20T00:43:03;21.70;50.42
25945;SHT31;13742;49.306;8.636;2023-07-20T00:44:02;21.68;50.81
25945;SHT31;13742;49.306;8.636;2023-07-20T00:45:03;21.71;50.82
25945;SHT31;13742;49.306;8.636;2023-07-20T00:46:03;21.68;50.63
25945;SHT31;13742;49.306;8.636;2023-07-20T00:47:02;21.67;50.77
25945;SHT31;13742;49.306;8.636;2023-07-20T00:48:04;21.67;50.64
25945;SHT31;13742;49.306;8.636;2023-07-20T00:49:02;21.65;50.92
25945;SHT31;13742;49.306;8.636;2023-07-20T00:50:04;21.63;50.66
25945;SHT31;13742;49.306;8.636;2023-07-20T00:51:02;21.63;50.64
25945;SHT31;13742;49.306;8.636;2023-07-20T00:52:03;21.64;50.60
25945;SHT31;13742;49.306;8.636;2023-07-20T00:53:04;21.61;50.70
25945;SHT31;13742;49.306;8.636;2023-07-20T00:54:03;21.65;50.57
25945;SHT31;13742;49.306;8.636;2023-07-20T00:55:02;21.67;51.13
25945;SHT31;13742;49.306;8.636;2023-07-20T00:56:03;21.64;50.69
25945;SHT31;13742;49.306;8.636;2023-07-20T00:57:03;21.61;51.10
25945;SHT31;13742;49.306;8.636;2023-07-20T00:58:03;21.57;51.36
25945;SHT31;13742;49.306;8.636;2023-07-20T00:59:03;21.58;51.04
25945;SHT31;13742;49.306;8.636;2023-07-20T01:00:03;21.53;50.97
25945;SHT31;13742;49.306;8.636;2023-07-20T01:01:02;21.54;50.91
25945;SHT31;13742;49.306;8.636;2023-07-20T01:02:02;21.54;51.09
25945;SHT31;13742;49.306;8.636;2023-07-20T01:03:02;21.57;50.79
25945;SHT31;13742;49.306;8.636;2023-07-20T01:04:02;21.56;50.84
25945;SHT31;13742;49.306;8.636;2023-07-20T01:05:04;21.57;51.55
25945;SHT31;13742;49.306;8.636;2023-07-20T01:06:11;21.57;51.47
25945;SHT31;13742;49.306;8.636;2023-07-20T01:08:10;21.57;51.35
25945;SHT31;13742;49.306;8.636;2023-07-20T01:09:13;21.56;51.23
25945;SHT31;13742;49.306;8.636;2023-07-20T01:11:14;21.52;51.12
25945;SHT31;13742;49.306;8.636;2023-07-20T01:12:10;21.53;51.27
25945;SHT31;13742;49.306;8.636;2023-07-20T01:13:03;21.52;51.28
25945;SHT31;13742;49.306;8.636;2023-07-20T01:14:02;21.52;51.39
25945;SHT31;13742;49.306;8.636;2023-07-20T01:15:03;21.50;51.62
25945;SHT31;13742;49.306;8.636;2023-07-20T01:16:02;21.50;51.75
25945;SHT31;13742;49.306;8.636;2023-07-20T01:17:02;21.50;51.52
25945;SHT31;13742;49.306;8.636;2023-07-20T01:18:04;21.52;51.61
25945;SHT31;13742;49.306;8.636;2023-07-20T01:19:02;21.47;51.40
25945;SHT31;13742;49.306;8.636;2023-07-20T01:20:02;21.50;51.41
25945;SHT31;13742;49.306;8.636;2023-07-20T01:21:06;21.47;51.54
25945;SHT31;13742;49.306;8.636;2023-07-20T01:24:26;21.44;51.56
25945;SHT31;13742;49.306;8.636;2023-07-20T01:25:19;21.44;51.71
25945;SHT31;13742;49.306;8.636;2023-07-20T01:27:25;21.40;51.85
25945;SHT31;13742;49.306;8.636;2023-07-20T01:29:11;21.37;51.91
25945;SHT31;13742;49.306;8.636;2023-07-20T01:30:16;21.33;51.83
25945;SHT31;13742;49.306;8.636;2023-07-20T01:32:04;21.32;52.50
25945;SHT31;13742;49.306;8.636;2023-07-20T01:33:03;21.29;52.41
25945;SHT31;13742;49.306;8.636;2023-07-20T01:34:03;21.27;52.40
25945;SHT31;13742;49.306;8.636;2023-07-20T01:35:04;21.27;52.17
25945;SHT31;13742;49.306;8.636;2023-07-20T01:36:03;21.26;52.08
25945;SHT31;13742;49.306;8.636;2023-07-20T01:37:03;21.23;52.20
25945;SHT31;13742;49.306;8.636;2023-07-20T01:38:03;21.25;52.59
25945;SHT31;13742;49.306;8.636;2023-07-20T01:39:02;21.23;52.81
25945;SHT31;13742;49.306;8.636;2023-07-20T01:40:03;21.23;53.15
25945;SHT31;13742;49.306;8.636;2023-07-20T01:41:03;21.23;52.73
25945;SHT31;13742;49.306;8.636;2023-07-20T01:42:03;21.22;52.72
25945;SHT31;13742;49.306;8.636;2023-07-20T01:43:02;21.22;52.73
25945;SHT31;13742;49.306;8.636;2023-07-20T01:44:04;21.20;52.82
25945;SHT31;13742;49.306;8.636;2023-07-20T01:45:03;21.17;52.76
25945;SHT31;13742;49.306;8.636;2023-07-20T01:46:02;21.17;52.71
25945;SHT31;13742;49.306;8.636;2023-07-20T01:47:02;21.16;52.48
25945;SHT31;13742;49.306;8.636;2023-07-20T01:48:02;21.17;52.71
25945;SHT31;13742;49.306;8.636;2023-07-20T01:49:02;21.15;52.65
25945;SHT31;13742;49.306;8.636;2023-07-20T01:50:02;21.16;52.85
25945;SHT31;13742;49.306;8.636;2023-07-20T01:51:02;21.13;52.83
25945;SHT31;13742;49.306;8.636;2023-07-20T01:52:03;21.15;52.66
25945;SHT31;13742;49.306;8.636;2023-07-20T01:53:02;21.12;52.91
25945;SHT31;13742;49.306;8.636;2023-07-20T01:54:02;21.10;53.09
25945;SHT31;13742;49.306;8.636;2023-07-20T01:55:03;21.09;53.24
25945;SHT31;13742;49.306;8.636;2023-07-20T01:56:02;21.07;54.13
25945;SHT31;13742;49.306;8.636;2023-07-20T01:57:02;20.99;54.06
25945;SHT31;13742;49.306;8.636;2023-07-20T01:58:03;20.98;54.08
25945;SHT31;13742;49.306;8.636;2023-07-20T01:59:02;20.89;54.22
25945;SHT31;13742;49.306;8.636;2023-07-20T02:00:03;20.88;53.64
25945;SHT31;13742;49.306;8.636;2023-07-20T02:01:03;20.88;53.52
25945;SHT31;13742;49.306;8.636;2023-07-20T02:02:02;20.79;54.82
25945;SHT31;13742;49.306;8.636;2023-07-20T02:03:02;20.79;54.45
25945;SHT31;13742;49.306;8.636;2023-07-20T02:04:02;20.79;53.94
25945;SHT31;13742;49.306;8.636;2023-07-20T02:05:02;20.78;53.99
25945;SHT31;13742;49.306;8.636;2023-07-20T02:06:02;20.64;55.23
25945;SHT31;13742;49.306;8.636;2023-07-20T02:07:02;20.54;55.18
25945;SHT31;13742;49.306;8.636;2023-07-20T02:08:02;20.57;54.92
25945;SHT31;13742;49.306;8.636;2023-07-20T02:09:02;20.52;55.28
25945;SHT31;13742;49.306;8.636;2023-07-20T02:10:02;20.41;55.89
25945;SHT31;13742;49.306;8.636;2023-07-20T02:11:02;20.44;55.45
25945;SHT31;13742;49.306;8.636;2023-07-20T02:12:02;20.48;55.63
25945;SHT31;13742;49.306;8.636;2023-07-20T02:13:02;20.40;56.14
25945;SHT31;13742;49.306;8.636;2023-07-20T02:14:02;20.34;56.47
25945;SHT31;13742;49.306;8.636;2023-07-20T02:15:03;20.30;55.81
25945;SHT31;13742;49.306;8.636;2023-07-20T02:16:02;20.30;56.32
25945;SHT31;13742;49.306;8.636;2023-07-20T02:17:03;20.27;56.47
25945;SHT31;13742;49.306;8.636;2023-07-20T02:18:03;20.26;56.00
25945;SHT31;13742;49.306;8.636;2023-07-20T02:19:03;20.21;56.97
25945;SHT31;13742;49.306;8.636;2023-07-20T02:20:03;20.19;56.64
25945;SHT31;13742;49.306;8.636;2023-07-20T02:21:02;20.12;57.16
25945;SHT31;13742;49.306;8.636;2023-07-20T02:22:02;20.12;56.68
25945;SHT31;13742;49.306;8.636;2023-07-20T02:23:02;20.13;56.17
25945;SHT31;13742;49.306;8.636;2023-07-20T02:24:02;20.15;56.40
25945;SHT31;13742;49.306;8.636;2023-07-20T02:25:04;20.15;56.05
25945;SHT31;13742;49.306;8.636;2023-07-20T02:26:02;20.15;56.09
25945;SHT31;13742;49.306;8.636;2023-07-20T02:27:02;20.15;55.77
25945;SHT31;13742;49.306;8.636;2023-07-20T02:28:04;20.13;55.95
25945;SHT31;13742;49.306;8.636;2023-07-20T02:29:04;20.13;55.82
25945;SHT31;13742;49.306;8.636;2023-07-20T02:30:04;20.13;55.96
25945;SHT31;13742;49.306;8.636;2023-07-20T02:31:02;20.10;56.81
25945;SHT31;13742;49.306;8.636;2023-07-20T02:32:02;20.05;56.40
25945;SHT31;13742;49.306;8.636;2023-07-20T02:33:02;20.05;56.17
25945;SHT31;13742;49.306;8.636;2023-07-20T02:34:02;20.05;56.27
25945;SHT31;13742;49.306;8.636;2023-07-20T02:35:04;20.06;57.51
25945;SHT31;13742;49.306;8.636;2023-07-20T02:36:02;20.05;57.25
25945;SHT31;13742;49.306;8.636;2023-07-20T02:37:02;20.02;57.59
25945;SHT31;13742;49.306;8.636;2023-07-20T02:38:03;19.97;57.84
25945;SHT31;13742;49.306;8.636;2023-07-20T02:39:03;20.00;57.17
25945;SHT31;13742;49.306;8.636;2023-07-20T02:40:05;20.00;57.03
25945;SHT31;13742;49.306;8.636;2023-07-20T02:41:02;20.00;56.93
25945;SHT31;13742;49.306;8.636;2023-07-20T02:42:02;19.95;57.46
25945;SHT31;13742;49.306;8.636;2023-07-20T02:43:02;19.93;56.83
25945;SHT31;13742;49.306;8.636;2023-07-20T02:44:04;19.90;56.93
25945;SHT31;13742;49.306;8.636;2023-07-20T02:45:03;19.87;56.90
25945;SHT31;13742;49.306;8.636;2023-07-20T02:46:02;19.90;57.08
25945;SHT31;13742;49.306;8.636;2023-07-20T02:47:02;19.86;57.43
25945;SHT31;13742;49.306;8.636;2023-07-20T02:48:03;19.78;57.64
25945;SHT31;13742;49.306;8.636;2023-07-20T02:49:02;19.80;57.31
25945;SHT31;13742;49.306;8.636;2023-07-20T02:50:02;19.80;57.71
25945;SHT31;13742;49.306;8.636;2023-07-20T02:51:02;19.80;57.57
25945;SHT31;13742;49.306;8.636;2023-07-20T02:52:02;19.78;57.29
25945;SHT31;13742;49.306;8.636;2023-07-20T02:53:02;19.80;57.26
25945;SHT31;13742;49.306;8.636;2023-07-20T02:54:03;19.79;57.25
25945;SHT31;13742;49.306;8.636;2023-07-20T02:55:02;19.80;56.98
25945;SHT31;13742;49.306;8.636;2023-07-20T02:56:02;19.83;57.30
25945;SHT31;13742;49.306;8.636;2023-07-20T02:57:02;19.82;57.35
25945;SHT31;13742;49.306;8.636;2023-07-20T02:58:02;19.83;58.14
25945;SHT31;13742;49.306;8.636;2023-07-20T02:59:02;19.80;58.83
25945;SHT31;13742;49.306;8.636;2023-07-20T03:00:04;19.79;58.94
25945;SHT31;13742;49.306;8.636;2023-07-20T03:01:02;19.78;58.90
25945;SHT31;13742;49.306;8.636;2023-07-20T03:02:03;19.73;58.89
25945;SHT31;13742;49.306;8.636;2023-07-20T03:03:02;19.72;59.18
25945;SHT31;13742;49.306;8.636;2023-07-20T03:04:02;19.73;58.97
25945;SHT31;13742;49.306;8.636;2023-07-20T03:05:06;19.72;58.15
25945;SHT31;13742;49.306;8.636;2023-07-20T03:06:02;19.70;58.47
25945;SHT31;13742;49.306;8.636;2023-07-20T03:07:06;19.66;58.18
25945;SHT31;13742;49.306;8.636;2023-07-20T03:08:03;19.65;57.97
25945;SHT31;13742;49.306;8.636;2023-07-20T03:09:02;19.66;57.72
25945;SHT31;13742;49.306;8.636;2023-07-20T03:10:04;19.65;57.98
25945;SHT31;13742;49.306;8.636;2023-07-20T03:11:02;19.65;58.02
25945;SHT31;13742;49.306;8.636;2023-07-20T03:12:05;19.64;57.98
25945;SHT31;13742;49.306;8.636;2023-07-20T03:13:02;19.68;57.97
25945;SHT31;13742;49.306;8.636;2023-07-20T03:14:02;19.61;58.16
25945;SHT31;13742;49.306;8.636;2023-07-20T03:15:03;19.64;58.02
25945;SHT31;13742;49.306;8.636;2023-07-20T03:16:02;19.62;57.92
25945;SHT31;13742;49.306;8.636;2023-07-20T03:17:02;19.58;58.38
25945;SHT31;13742;49.306;8.636;2023-07-20T03:18:03;19.57;58.35
25945;SHT31;13742;49.306;8.636;2023-07-20T03:19:02;19.58;58.61
25945;SHT31;13742;49.306;8.636;2023-07-20T03:20:03;19.57;58.42
25945;SHT31;13742;49.306;8.636;2023-07-20T03:21:02;19.54;57.96
25945;SHT31;13742;49.306;8.636;2023-07-20T03:22:02;19.54;58.03
25945;SHT31;13742;49.306;8.636;2023-07-20T03:23:02;19.52;58.20
25945;SHT31;13742;49.306;8.636;2023-07-20T03:24:02;19.55;58.25
25945;SHT31;13742;49.306;8.636;2023-07-20T03:25:03;19.49;58.23
25945;SHT31;13742;49.306;8.636;2023-07-20T03:26:02;19.49;58.43
25945;SHT31;13742;49.306;8.636;2023-07-20T03:27:02;19.49;58.28
25945;SHT31;13742;49.306;8.636;2023-07-20T03:28:02;19.49;58.30
25945;SHT31;13742;49.306;8.636;2023-07-20T03:29:03;19.48;58.14
25945;SHT31;13742;49.306;8.636;2023-07-20T03:30:02;19.48;58.15
25945;SHT31;13742;49.306;8.636;2023-07-20T03:31:02;19.47;58.15
25945;SHT31;13742;49.306;8.636;2023-07-20T03:32:03;19.47;57.99
25945;SHT31;13742;49.306;8.636;2023-07-20T03:33:03;19.42;58.69
25945;SHT31;13742;49.306;8.636;2023-07-20T03:34:02;19.45;58.26
25945;SHT31;13742;49.306;8.636;2023-07-20T03:35:02;19.42;58.19
25945;SHT31;13742;49.306;8.636;2023-07-20T03:36:02;19.41;58.86
25945;SHT31;13742;49.306;8.636;2023-07-20T03:37:05;19.39;58.83
25945;SHT31;13742;49.306;8.636;2023-07-20T03:38:02;19.39;58.40
25945;SHT31;13742;49.306;8.636;2023-07-20T03:39:03;19.37;59.31
25945;SHT31;13742;49.306;8.636;2023-07-20T03:40:03;19.31;59.60
25945;SHT31;13742;49.306;8.636;2023-07-20T03:41:02;19.28;59.02
25945;SHT31;13742;49.306;8.636;2023-07-20T03:42:02;19.31;59.13
25945;SHT31;13742;49.306;8.636;2023-07-20T03:43:03;19.27;59.69
25945;SHT31;13742;49.306;8.636;2023-07-20T03:44:02;19.18;60.63
25945;SHT31;13742;49.306;8.636;2023-07-20T03:45:03;19.20;59.76
25945;SHT31;13742;49.306;8.636;2023-07-20T03:46:06;19.18;59.69
25945;SHT31;13742;49.306;8.636;2023-07-20T03:47:03;19.18;59.28
25945;SHT31;13742;49.306;8.636;2023-07-20T03:48:02;19.17;60.25
25945;SHT31;13742;49.306;8.636;2023-07-20T03:49:02;19.15;59.48
25945;SHT31;13742;49.306;8.636;2023-07-20T03:50:03;19.13;59.47
25945;SHT31;13742;49.306;8.636;2023-07-20T03:51:02;19.14;60.26
25945;SHT31;13742;49.306;8.636;2023-07-20T03:52:03;19.08;60.33
25945;SHT31;13742;49.306;8.636;2023-07-20T03:53:02;19.08;59.75
25945;SHT31;13742;49.306;8.636;2023-07-20T03:54:02;19.07;59.78
25945;SHT31;13742;49.306;8.636;2023-07-20T03:55:02;19.06;59.61
25945;SHT31;13742;49.306;8.636;2023-07-20T03:56:02;19.06;59.75
25945;SHT31;13742;49.306;8.636;2023-07-20T03:57:02;19.03;60.40
25945;SHT31;13742;49.306;8.636;2023-07-20T03:58:03;18.91;61.30
25945;SHT31;13742;49.306;8.636;2023-07-20T03:59:02;18.89;61.14
25945;SHT31;13742;49.306;8.636;2023-07-20T04:00:03;18.80;61.70
25945;SHT31;13742;49.306;8.636;2023-07-20T04:01:02;18.79;61.45
25945;SHT31;13742;49.306;8.636;2023-07-20T04:02:02;18.77;61.36
25945;SHT31;13742;49.306;8.636;2023-07-20T04:03:02;18.75;61.16
25945;SHT31;13742;49.306;8.636;2023-07-20T04:04:06;18.70;62.46
25945;SHT31;13742;49.306;8.636;2023-07-20T04:05:02;18.66;62.69
25945;SHT31;13742;49.306;8.636;2023-07-20T04:06:02;18.62;62.93
25945;SHT31;13742;49.306;8.636;2023-07-20T04:07:02;18.60;62.23
25945;SHT31;13742;49.306;8.636;2023-07-20T04:08:02;18.62;61.53
25945;SHT31;13742;49.306;8.636;2023-07-20T04:09:03;18.59;62.36
25945;SHT31;13742;49.306;8.636;2023-07-20T04:10:02;18.62;61.52
25945;SHT31;13742;49.306;8.636;2023-07-20T04:11:02;18.66;61.72
25945;SHT31;13742;49.306;8.636;2023-07-20T04:12:02;18.62;62.86
25945;SHT31;13742;49.306;8.636;2023-07-20T04:13:03;18.60;62.71
25945;SHT31;13742;49.306;8.636;2023-07-20T04:14:02;18.60;62.60
25945;SHT31;13742;49.306;8.636;2023-07-20T04:15:04;18.58;63.24
25945;SHT31;13742;49.306;8.636;2023-07-20T04:16:03;18.59;62.44
25945;SHT31;13742;49.306;8.636;2023-07-20T04:17:02;18.60;62.80
25945;SHT31;13742;49.306;8.636;2023-07-20T04:18:02;18.56;63.44
25945;SHT31;13742;49.306;8.636;2023-07-20T04:19:02;18.48;63.66
25945;SHT31;13742;49.306;8.636;2023-07-20T04:20:03;18.51;62.99
25945;SHT31;13742;49.306;8.636;2023-07-20T04:21:02;18.52;62.52
25945;SHT31;13742;49.306;8.636;2023-07-20T04:22:03;18.52;62.88
25945;SHT31;13742;49.306;8.636;2023-07-20T04:23:02;18.55;62.06
25945;SHT31;13742;49.306;8.636;2023-07-20T04:24:02;18.58;62.00
25945;SHT31;13742;49.306;8.636;2023-07-20T04:25:03;18.60;62.06
25945;SHT31;13742;49.306;8.636;2023-07-20T04:26:02;18.63;61.70
25945;SHT31;13742;49.306;8.636;2023-07-20T04:27:02;18.65;61.79
25945;SHT31;13742;49.306;8.636;2023-07-20T04:28:02;18.66;62.37
25945;SHT31;13742;49.306;8.636;2023-07-20T04:29:02;18.60;63.06
25945;SHT31;13742;49.306;8.636;2023-07-20T04:30:04;18.63;62.09
25945;SHT31;13742;49.306;8.636;2023-07-20T04:31:10;18.68;62.24
25945;SHT31;13742;49.306;8.636;2023-07-20T04:32:02;18.68;61.91
25945;SHT31;13742;49.306;8.636;2023-07-20T04:33:03;18.70;61.52
25945;SHT31;13742;49.306;8.636;2023-07-20T04:34:02;18.75;61.73
25945;SHT31;13742;49.306;8.636;2023-07-20T04:35:06;18.75;62.32
25945;SHT31;13742;49.306;8.636;2023-07-20T04:36:03;18.73;62.13
25945;SHT31;13742;49.306;8.636;2023-07-20T04:37:03;18.72;62.00
25945;SHT31;13742;49.306;8.636;2023-07-20T04:38:02;18.70;61.92
25945;SHT31;13742;49.306;8.636;2023-07-20T04:39:03;18.69;62.81
25945;SHT31;13742;49.306;8.636;2023-07-20T04:40:04;18.66;61.92
25945;SHT31;13742;49.306;8.636;2023-07-20T04:41:02;18.72;61.98
25945;SHT31;13742;49.306;8.636;2023-07-20T04:42:02;18.72;62.14
25945;SHT31;13742;49.306;8.636;2023-07-20T04:43:03;18.76;61.82
25945;SHT31;13742;49.306;8.636;2023-07-20T04:44:02;18.76;61.53
25945;SHT31;13742;49.306;8.636;2023-07-20T04:45:02;18.76;62.60
25945;SHT31;13742;49.306;8.636;2023-07-20T04:46:02;18.77;62.01
25945;SHT31;13742;49.306;8.636;2023-07-20T04:47:03;18.82;62.08
25945;SHT31;13742;49.306;8.636;2023-07-20T04:48:03;18.82;62.07
25945;SHT31;13742;49.306;8.636;2023-07-20T04:49:02;18.84;61.85
25945;SHT31;13742;49.306;8.636;2023-07-20T04:50:02;18.87;62.33
25945;SHT31;13742;49.306;8.636;2023-07-20T04:51:02;18.89;61.96
25945;SHT31;13742;49.306;8.636;2023-07-20T04:52:03;18.86;62.34
25945;SHT31;13742;49.306;8.636;2023-07-20T04:53:02;18.90;61.59
25945;SHT31;13742;49.306;8.636;2023-07-20T04:54:02;18.90;61.87
25945;SHT31;13742;49.306;8.636;2023-07-20T04:55:05;18.93;62.08
25945;SHT31;13742;49.306;8.636;2023-07-20T04:56:02;18.96;62.21
25945;SHT31;13742;49.306;8.636;2023-07-20T04:57:02;18.97;61.81
25945;SHT31;13742;49.306;8.636;2023-07-20T04:58:03;18.98;61.79
25945;SHT31;13742;49.306;8.636;2023-07-20T04:59:02;19.01;61.53
25945;SHT31;13742;49.306;8.636;2023-07-20T05:00:07;19.04;61.66
25945;SHT31;13742;49.306;8.636;2023-07-20T05:01:02;19.08;61.28
25945;SHT31;13742;49.306;8.636;2023-07-20T05:02:02;19.14;62.34
25945;SHT31;13742;49.306;8.636;2023-07-20T05:03:02;19.10;61.96
25945;SHT31;13742;49.306;8.636;2023-07-20T05:04:02;19.08;61.32
25945;SHT31;13742;49.306;8.636;2023-07-20T05:05:03;19.11;61.15
25945;SHT31;13742;49.306;8.636;2023-07-20T05:06:02;19.15;61.05
25945;SHT31;13742;49.306;8.636;2023-07-20T05:07:02;19.18;61.21
25945;SHT31;13742;49.306;8.636;2023-07-20T05:08:03;19.21;61.22
25945;SHT31;13742;49.306;8.636;2023-07-20T05:09:02;19.24;61.02
25945;SHT31;13742;49.306;8.636;2023-07-20T05:10:02;19.26;60.99
25945;SHT31;13742;49.306;8.636;2023-07-20T05:11:02;19.28;61.07
25945;SHT31;13742;49.306;8.636;2023-07-20T05:12:02;19.30;60.98
25945;SHT31;13742;49.306;8.636;2023-07-20T05:13:02;19.30;61.74
25945;SHT31;13742;49.306;8.636;2023-07-20T05:14:02;19.33;61.44
25945;SHT31;13742;49.306;8.636;2023-07-20T05:15:03;19.35;61.73
25945;SHT31;13742;49.306;8.636;2023-07-20T05:16:02;19.34;61.46
25945;SHT31;13742;49.306;8.636;2023-07-20T05:17:02;19.38;62.35
25945;SHT31;13742;49.306;8.636;2023-07-20T05:18:02;19.39;62.20
25945;SHT31;13742;49.306;8.636;2023-07-20T05:19:02;19.42;61.66
25945;SHT31;13742;49.306;8.636;2023-07-20T05:20:04;19.44;61.59
25945;SHT31;13742;49.306;8.636;2023-07-20T05:21:02;19.44;61.72
25945;SHT31;13742;49.306;8.636;2023-07-20T05:22:02;19.45;61.58
25945;SHT31;13742;49.306;8.636;2023-07-20T05:23:02;19.48;61.55
25945;SHT31;13742;49.306;8.636;2023-07-20T05:24:02;19.49;61.40
25945;SHT31;13742;49.306;8.636;2023-07-20T05:25:02;19.55;61.66
25945;SHT31;13742;49.306;8.636;2023-07-20T05:26:02;19.54;61.51
25945;SHT31;13742;49.306;8.636;2023-07-20T05:27:03;19.58;61.29
25945;SHT31;13742;49.306;8.636;2023-07-20T05:28:02;19.61;61.29
25945;SHT31;13742;49.306;8.636;2023-07-20T05:29:02;19.61;60.98
25945;SHT31;13742;49.306;8.636;2023-07-20T05:30:03;19.64;61.58
25945;SHT31;13742;49.306;8.636;2023-07-20T05:31:03;19.65;61.04
25945;SHT31;13742;49.306;8.636;2023-07-20T05:32:03;19.68;61.64
25945;SHT31;13742;49.306;8.636;2023-07-20T05:33:02;19.72;61.87
25945;SHT31;13742;49.306;8.636;2023-07-20T05:34:02;19.72;61.17
25945;SHT31;13742;49.306;8.636;2023-07-20T05:35:02;19.72;60.99
25945;SHT31;13742;49.306;8.636;2023-07-20T05:36:02;19.78;61.56
25945;SHT31;13742;49.306;8.636;2023-07-20T05:37:02;19.78;61.21
25945;SHT31;13742;49.306;8.636;2023-07-20T05:38:04;19.73;60.79
25945;SHT31;13742;49.306;8.636;2023-07-20T05:39:02;19.76;61.12
25945;SHT31;13742;49.306;8.636;2023-07-20T05:40:03;19.73;61.09
25945;SHT31;13742;49.306;8.636;2023-07-20T05:41:02;19.76;61.54
25945;SHT31;13742;49.306;8.636;2023-07-20T05:42:02;19.73;61.09
25945;SHT31;13742;49.306;8.636;2023-07-20T05:43:03;19.73;61.04
25945;SHT31;13742;49.306;8.636;2023-07-20T05:44:02;19.73;61.27
25945;SHT31;13742;49.306;8.636;2023-07-20T05:45:02;19.73;61.01
25945;SHT31;13742;49.306;8.636;2023-07-20T05:46:02;19.76;60.77
25945;SHT31;13742;49.306;8.636;2023-07-20T05:47:03;19.76;60.90
25945;SHT31;13742;49.306;8.636;2023-07-20T05:48:02;19.78;61.16
25945;SHT31;13742;49.306;8.636;2023-07-20T05:49:02;19.78;60.84
25945;SHT31;13742;49.306;8.636;2023-07-20T05:50:04;19.75;60.96
25945;SHT31;13742;49.306;8.636;2023-07-20T05:51:02;19.78;61.14
25945;SHT31;13742;49.306;8.636;2023-07-20T05:52:02;19.82;61.07
25945;SHT31;13742;49.306;8.636;2023-07-20T05:53:02;19.80;61.28
25945;SHT31;13742;49.306;8.636;2023-07-20T05:54:02;19.80;61.25
25945;SHT31;13742;49.306;8.636;2023-07-20T05:55:03;19.80;61.06
25945;SHT31;13742;49.306;8.636;2023-07-20T05:56:03;19.83;61.31
25945;SHT31;13742;49.306;8.636;2023-07-20T05:57:02;19.89;61.44
25945;SHT31;13742;49.306;8.636;2023-07-20T05:58:04;19.87;60.92
25945;SHT31;13742;49.306;8.636;2023-07-20T05:59:02;19.87;61.30
25945;SHT31;13742;49.306;8.636;2023-07-20T06:00:02;19.89;61.12
25945;SHT31;13742;49.306;8.636;2023-07-20T06:01:03;19.92;61.08
25945;SHT31;13742;49.306;8.636;2023-07-20T06:02:02;19.95;61.55
25945;SHT31;13742;49.306;8.636;2023-07-20T06:03:02;19.96;61.02
25945;SHT31;13742;49.306;8.636;2023-07-20T06:04:03;19.92;60.84
25945;SHT31;13742;49.306;8.636;2023-07-20T06:05:02;19.78;60.98
25945;SHT31;13742;49.306;8.636;2023-07-20T06:06:03;19.79;60.74
25945;SHT31;13742;49.306;8.636;2023-07-20T06:07:02;19.85;60.68
25945;SHT31;13742;49.306;8.636;2023-07-20T06:08:02;19.82;60.82
25945;SHT31;13742;49.306;8.636;2023-07-20T06:09:04;19.85;60.89
25945;SHT31;13742;49.306;8.636;2023-07-20T06:10:03;19.85;60.87
25945;SHT31;13742;49.306;8.636;2023-07-20T06:11:02;19.76;61.10
25945;SHT31;13742;49.306;8.636;2023-07-20T06:12:02;19.76;60.79
25945;SHT31;13742;49.306;8.636;2023-07-20T06:13:02;19.72;61.21
25945;SHT31;13742;49.306;8.636;2023-07-20T06:14:02;19.68;61.28
25945;SHT31;13742;49.306;8.636;2023-07-20T06:15:03;19.69;61.12
25945;SHT31;13742;49.306;8.636;2023-07-20T06:16:04;19.68;61.54
25945;SHT31;13742;49.306;8.636;2023-07-20T06:17:02;19.72;61.27
25945;SHT31;13742;49.306;8.636;2023-07-20T06:18:03;19.75;61.10
25945;SHT31;13742;49.306;8.636;2023-07-20T06:19:02;19.79;61.01
25945;SHT31;13742;49.306;8.636;2023-07-20T06:20:02;19.83;60.94
25945;SHT31;13742;49.306;8.636;2023-07-20T06:21:02;19.78;61.35
25945;SHT31;13742;49.306;8.636;2023-07-20T06:22:02;19.78;60.96
25945;SHT31;13742;49.306;8.636;2023-07-20T06:23:02;19.75;61.28
25945;SHT31;13742;49.306;8.636;2023-07-20T06:24:02;19.78;61.20
25945;SHT31;13742;49.306;8.636;2023-07-20T06:25:02;19.86;61.09